sensor_id;sensor_type;location;lat;lon;timestamp;P1;durP1;ratioP1;P2;durP2;ratioP2
68353;SDS011;55274;43.060;25.618;2022-11-20T00:02:16;10.13;;;4.05;;
68353;SDS011;55274;43.060;25.618;2022-11-20T00:04:42;10.77;;;4.07;;
68353;SDS011;55274;43.060;25.618;2022-11-20T00:07:07;14.85;;;4.15;;
68353;SDS011;55274;43.060;25.618;2022-11-20T00:09:33;10.55;;;3.55;;
68353;SDS011;55274;43.060;25.618;2022-11-20T00:11:59;11.25;;;4.22;;
68353;SDS011;55274;43.060;25.618;2022-11-20T00:14:25;9.10;;;4.80;;
68353;SDS011;55274;43.060;25.618;2022-11-20T00:16:50;16.33;;;4.40;;
68353;SDS011;55274;43.060;25.618;2022-11-20T00:19:16;10.25;;;4.32;;
68353;SDS011;55274;43.060;25.618;2022-11-20T00:21:42;14.30;;;4.40;;
68353;SDS011;55274;43.060;25.618;2022-11-20T00:24:08;10.57;;;3.42;;
68353;SDS011;55274;43.060;25.618;2022-11-20T00:26:35;10.63;;;3.40;;
68353;SDS011;55274;43.060;25.618;2022-11-20T00:29:01;7.70;;;3.25;;
68353;SDS011;55274;43.060;25.618;2022-11-20T00:31:28;9.13;;;3.20;;
68353;SDS011;55274;43.060;25.618;2022-11-20T00:33:55;13.45;;;3.50;;
68353;SDS011;55274;43.060;25.618;2022-11-20T00:36:24;7.40;;;2.92;;
68353;SDS011;55274;43.060;25.618;2022-11-20T00:38:56;8.43;;;2.90;;
68353;SDS011;55274;43.060;25.618;2022-11-20T00:41:23;7.90;;;2.53;;
68353;SDS011;55274;43.060;25.618;2022-11-20T00:43:51;7.85;;;3.13;;
68353;SDS011;55274;43.060;25.618;2022-11-20T00:46:18;10.88;;;3.65;;
68353;SDS011;55274;43.060;25.618;2022-11-20T00:48:45;6.38;;;2.58;;
68353;SDS011;55274;43.060;25.618;2022-11-20T00:51:12;10.63;;;3.35;;
68353;SDS011;55274;43.060;25.618;2022-11-20T00:53:39;8.57;;;2.70;;
68353;SDS011;55274;43.060;25.618;2022-11-20T00:56:05;16.05;;;3.30;;
68353;SDS011;55274;43.060;25.618;2022-11-20T00:58:36;7.43;;;3.20;;
68353;SDS011;55274;43.060;25.618;2022-11-20T01:01:05;8.02;;;3.20;;
68353;SDS011;55274;43.060;25.618;2022-11-20T01:03:36;9.43;;;3.45;;
68353;SDS011;55274;43.060;25.618;2022-11-20T01:06:09;5.15;;;2.53;;
68353;SDS011;55274;43.060;25.618;2022-11-20T01:08:36;12.88;;;3.13;;
68353;SDS011;55274;43.060;25.618;2022-11-20T01:11:04;7.47;;;2.65;;
68353;SDS011;55274;43.060;25.618;2022-11-20T01:13:32;10.20;;;3.00;;
68353;SDS011;55274;43.060;25.618;2022-11-20T01:16:06;8.02;;;2.55;;
68353;SDS011;55274;43.060;25.618;2022-11-20T01:18:33;7.15;;;2.30;;
68353;SDS011;55274;43.060;25.618;2022-11-20T01:21:00;12.68;;;3.10;;
68353;SDS011;55274;43.060;25.618;2022-11-20T01:25:58;5.07;;;2.10;;
68353;SDS011;55274;43.060;25.618;2022-11-20T01:28:26;6.80;;;3.15;;
68353;SDS011;55274;43.060;25.618;2022-11-20T01:30:51;9.23;;;2.80;;
68353;SDS011;55274;43.060;25.618;2022-11-20T01:33:17;7.65;;;2.38;;
68353;SDS011;55274;43.060;25.618;2022-11-20T01:35:43;5.90;;;2.40;;
68353;SDS011;55274;43.060;25.618;2022-11-20T01:38:09;7.97;;;2.58;;
68353;SDS011;55274;43.060;25.618;2022-11-20T01:40:34;8.23;;;2.40;;
68353;SDS011;55274;43.060;25.618;2022-11-20T01:53:53;7.63;;;2.60;;
68353;SDS011;55274;43.060;25.618;2022-11-20T01:56:22;7.35;;;2.50;;
68353;SDS011;55274;43.060;25.618;2022-11-20T01:58:52;8.20;;;2.40;;
68353;SDS011;55274;43.060;25.618;2022-11-20T02:01:21;10.00;;;2.38;;
68353;SDS011;55274;43.060;25.618;2022-11-20T02:03:47;7.35;;;2.67;;
68353;SDS011;55274;43.060;25.618;2022-11-20T02:06:25;7.28;;;3.08;;
68353;SDS011;55274;43.060;25.618;2022-11-20T02:08:54;4.05;;;2.05;;
68353;SDS011;55274;43.060;25.618;2022-11-20T02:11:20;5.72;;;2.58;;
68353;SDS011;55274;43.060;25.618;2022-11-20T02:13:46;8.27;;;2.30;;
68353;SDS011;55274;43.060;25.618;2022-11-20T02:16:20;10.50;;;2.90;;
68353;SDS011;55274;43.060;25.618;2022-11-20T02:18:58;7.28;;;2.30;;
68353;SDS011;55274;43.060;25.618;2022-11-20T02:21:35;7.05;;;2.17;;
68353;SDS011;55274;43.060;25.618;2022-11-20T02:26:44;6.93;;;2.33;;
68353;SDS011;55274;43.060;25.618;2022-11-20T02:29:38;9.75;;;2.20;;
68353;SDS011;55274;43.060;25.618;2022-11-20T02:32:51;6.80;;;2.50;;
68353;SDS011;55274;43.060;25.618;2022-11-20T02:35:09;5.68;;;2.10;;
68353;SDS011;55274;43.060;25.618;2022-11-20T02:37:44;11.68;;;2.40;;
68353;SDS011;55274;43.060;25.618;2022-11-20T02:40:15;6.45;;;2.33;;
68353;SDS011;55274;43.060;25.618;2022-11-20T02:42:41;10.50;;;2.47;;
68353;SDS011;55274;43.060;25.618;2022-11-20T02:45:07;6.57;;;2.65;;
68353;SDS011;55274;43.060;25.618;2022-11-20T02:47:33;6.82;;;2.10;;
68353;SDS011;55274;43.060;25.618;2022-11-20T02:49:59;7.40;;;2.22;;
68353;SDS011;55274;43.060;25.618;2022-11-20T02:52:25;9.57;;;2.40;;
68353;SDS011;55274;43.060;25.618;2022-11-20T02:54:51;6.82;;;2.53;;
68353;SDS011;55274;43.060;25.618;2022-11-20T02:57:17;5.40;;;2.35;;
68353;SDS011;55274;43.060;25.618;2022-11-20T02:59:43;9.00;;;2.10;;
68353;SDS011;55274;43.060;25.618;2022-11-20T03:02:09;7.10;;;2.38;;
68353;SDS011;55274;43.060;25.618;2022-11-20T03:04:34;8.32;;;2.92;;
68353;SDS011;55274;43.060;25.618;2022-11-20T03:07:00;6.60;;;2.03;;
68353;SDS011;55274;43.060;25.618;2022-11-20T03:09:26;8.27;;;2.38;;
68353;SDS011;55274;43.060;25.618;2022-11-20T03:11:52;5.75;;;2.17;;
68353;SDS011;55274;43.060;25.618;2022-11-20T03:14:18;6.93;;;2.45;;
68353;SDS011;55274;43.060;25.618;2022-11-20T03:16:44;9.82;;;2.03;;
68353;SDS011;55274;43.060;25.618;2022-11-20T03:19:11;8.82;;;2.25;;
68353;SDS011;55274;43.060;25.618;2022-11-20T03:21:37;3.85;;;1.60;;
68353;SDS011;55274;43.060;25.618;2022-11-20T03:24:03;7.72;;;2.25;;
68353;SDS011;55274;43.060;25.618;2022-11-20T03:26:29;5.93;;;2.13;;
68353;SDS011;55274;43.060;25.618;2022-11-20T03:28:56;8.50;;;2.55;;
68353;SDS011;55274;43.060;25.618;2022-11-20T03:31:24;5.82;;;2.10;;
68353;SDS011;55274;43.060;25.618;2022-11-20T03:33:52;5.72;;;1.90;;
68353;SDS011;55274;43.060;25.618;2022-11-20T03:36:18;7.68;;;1.95;;
68353;SDS011;55274;43.060;25.618;2022-11-20T03:38:45;9.52;;;1.88;;
68353;SDS011;55274;43.060;25.618;2022-11-20T03:41:19;8.65;;;2.05;;
68353;SDS011;55274;43.060;25.618;2022-11-20T03:43:56;9.95;;;2.30;;
68353;SDS011;55274;43.060;25.618;2022-11-20T03:46:24;7.45;;;2.17;;
68353;SDS011;55274;43.060;25.618;2022-11-20T03:48:51;6.40;;;2.00;;
68353;SDS011;55274;43.060;25.618;2022-11-20T03:51:18;9.82;;;2.33;;
68353;SDS011;55274;43.060;25.618;2022-11-20T03:53:53;9.25;;;2.22;;
68353;SDS011;55274;43.060;25.618;2022-11-20T03:56:22;9.18;;;2.13;;
68353;SDS011;55274;43.060;25.618;2022-11-20T03:58:49;9.73;;;1.77;;
68353;SDS011;55274;43.060;25.618;2022-11-20T04:01:19;6.72;;;1.70;;
68353;SDS011;55274;43.060;25.618;2022-11-20T04:03:51;6.13;;;1.73;;
68353;SDS011;55274;43.060;25.618;2022-11-20T04:06:22;9.20;;;2.45;;
68353;SDS011;55274;43.060;25.618;2022-11-20T04:08:50;9.60;;;2.13;;
68353;SDS011;55274;43.060;25.618;2022-11-20T04:11:23;7.10;;;2.10;;
68353;SDS011;55274;43.060;25.618;2022-11-20T04:13:52;5.53;;;1.60;;
68353;SDS011;55274;43.060;25.618;2022-11-20T04:16:19;9.60;;;2.10;;
68353;SDS011;55274;43.060;25.618;2022-11-20T04:18:46;8.88;;;2.22;;
68353;SDS011;55274;43.060;25.618;2022-11-20T04:21:16;6.50;;;2.10;;
68353;SDS011;55274;43.060;25.618;2022-11-20T04:23:41;7.53;;;2.05;;
68353;SDS011;55274;43.060;25.618;2022-11-20T04:26:08;7.45;;;1.80;;
68353;SDS011;55274;43.060;25.618;2022-11-20T04:28:35;4.18;;;1.58;;
68353;SDS011;55274;43.060;25.618;2022-11-20T04:31:02;6.35;;;1.80;;
68353;SDS011;55274;43.060;25.618;2022-11-20T04:33:32;5.90;;;2.13;;
68353;SDS011;55274;43.060;25.618;2022-11-20T04:36:06;8.18;;;2.10;;
68353;SDS011;55274;43.060;25.618;2022-11-20T04:38:34;8.40;;;2.03;;
68353;SDS011;55274;43.060;25.618;2022-11-20T04:41:01;7.60;;;1.80;;
68353;SDS011;55274;43.060;25.618;2022-11-20T04:43:31;7.50;;;1.92;;
68353;SDS011;55274;43.060;25.618;2022-11-20T04:45:58;7.40;;;2.15;;
68353;SDS011;55274;43.060;25.618;2022-11-20T04:48:26;5.28;;;1.80;;
68353;SDS011;55274;43.060;25.618;2022-11-20T04:50:53;6.13;;;1.98;;
68353;SDS011;55274;43.060;25.618;2022-11-20T04:53:20;5.85;;;2.08;;
68353;SDS011;55274;43.060;25.618;2022-11-20T04:55:47;6.22;;;1.92;;
68353;SDS011;55274;43.060;25.618;2022-11-20T04:58:13;9.85;;;3.10;;
68353;SDS011;55274;43.060;25.618;2022-11-20T05:00:40;3.17;;;1.77;;
68353;SDS011;55274;43.060;25.618;2022-11-20T05:03:06;7.60;;;2.05;;
68353;SDS011;55274;43.060;25.618;2022-11-20T05:05:33;16.42;;;2.50;;
68353;SDS011;55274;43.060;25.618;2022-11-20T05:08:00;8.48;;;1.85;;
68353;SDS011;55274;43.060;25.618;2022-11-20T05:10:26;6.15;;;2.13;;
68353;SDS011;55274;43.060;25.618;2022-11-20T05:12:52;6.82;;;1.90;;
68353;SDS011;55274;43.060;25.618;2022-11-20T05:15:18;5.97;;;1.67;;
68353;SDS011;55274;43.060;25.618;2022-11-20T05:17:47;6.85;;;1.60;;
68353;SDS011;55274;43.060;25.618;2022-11-20T05:20:14;8.43;;;2.20;;
68353;SDS011;55274;43.060;25.618;2022-11-20T05:22:40;9.60;;;1.90;;
68353;SDS011;55274;43.060;25.618;2022-11-20T05:25:06;8.05;;;1.80;;
68353;SDS011;55274;43.060;25.618;2022-11-20T05:27:32;8.15;;;1.60;;
68353;SDS011;55274;43.060;25.618;2022-11-20T05:29:57;9.27;;;2.30;;
68353;SDS011;55274;43.060;25.618;2022-11-20T05:32:23;9.90;;;2.13;;
68353;SDS011;55274;43.060;25.618;2022-11-20T05:34:50;10.60;;;1.98;;
68353;SDS011;55274;43.060;25.618;2022-11-20T05:37:20;4.22;;;1.73;;
68353;SDS011;55274;43.060;25.618;2022-11-20T05:39:46;5.30;;;1.63;;
68353;SDS011;55274;43.060;25.618;2022-11-20T05:42:11;6.97;;;2.28;;
68353;SDS011;55274;43.060;25.618;2022-11-20T05:44:56;6.38;;;2.05;;
68353;SDS011;55274;43.060;25.618;2022-11-20T05:47:22;5.18;;;1.95;;
68353;SDS011;55274;43.060;25.618;2022-11-20T05:49:48;6.80;;;2.08;;
68353;SDS011;55274;43.060;25.618;2022-11-20T05:52:14;4.57;;;1.52;;
68353;SDS011;55274;43.060;25.618;2022-11-20T05:54:40;6.03;;;1.77;;
68353;SDS011;55274;43.060;25.618;2022-11-20T05:57:05;12.63;;;2.40;;
68353;SDS011;55274;43.060;25.618;2022-11-20T05:59:31;8.70;;;1.88;;
68353;SDS011;55274;43.060;25.618;2022-11-20T06:01:57;5.93;;;1.75;;
68353;SDS011;55274;43.060;25.618;2022-11-20T06:04:23;7.00;;;1.98;;
68353;SDS011;55274;43.060;25.618;2022-11-20T06:06:49;9.45;;;4.03;;
68353;SDS011;55274;43.060;25.618;2022-11-20T06:09:14;18.33;;;9.07;;
68353;SDS011;55274;43.060;25.618;2022-11-20T06:11:40;20.67;;;12.75;;
68353;SDS011;55274;43.060;25.618;2022-11-20T06:14:06;24.77;;;12.85;;
68353;SDS011;55274;43.060;25.618;2022-11-20T06:16:32;31.35;;;15.82;;
68353;SDS011;55274;43.060;25.618;2022-11-20T06:18:57;35.90;;;19.17;;
68353;SDS011;55274;43.060;25.618;2022-11-20T06:21:23;32.22;;;18.98;;
68353;SDS011;55274;43.060;25.618;2022-11-20T06:23:49;25.75;;;12.70;;
68353;SDS011;55274;43.060;25.618;2022-11-20T06:26:18;35.47;;;16.90;;
68353;SDS011;55274;43.060;25.618;2022-11-20T06:28:46;28.35;;;13.85;;
68353;SDS011;55274;43.060;25.618;2022-11-20T06:31:13;30.80;;;14.10;;
68353;SDS011;55274;43.060;25.618;2022-11-20T06:33:40;21.38;;;10.90;;
68353;SDS011;55274;43.060;25.618;2022-11-20T06:36:07;15.10;;;8.05;;
68353;SDS011;55274;43.060;25.618;2022-11-20T06:38:35;17.58;;;10.93;;
68353;SDS011;55274;43.060;25.618;2022-11-20T06:41:01;9.57;;;4.80;;
68353;SDS011;55274;43.060;25.618;2022-11-20T06:43:28;11.10;;;5.57;;
68353;SDS011;55274;43.060;25.618;2022-11-20T06:45:55;17.83;;;9.73;;
68353;SDS011;55274;43.060;25.618;2022-11-20T06:48:22;17.05;;;9.63;;
68353;SDS011;55274;43.060;25.618;2022-11-20T06:50:49;14.38;;;7.45;;
68353;SDS011;55274;43.060;25.618;2022-11-20T06:53:14;11.93;;;6.35;;
68353;SDS011;55274;43.060;25.618;2022-11-20T06:55:44;15.27;;;9.15;;
68353;SDS011;55274;43.060;25.618;2022-11-20T06:58:11;24.15;;;7.85;;
68353;SDS011;55274;43.060;25.618;2022-11-20T07:00:37;22.75;;;12.55;;
68353;SDS011;55274;43.060;25.618;2022-11-20T07:03:03;19.77;;;11.50;;
68353;SDS011;55274;43.060;25.618;2022-11-20T07:05:30;26.90;;;15.68;;
68353;SDS011;55274;43.060;25.618;2022-11-20T07:07:56;27.33;;;15.43;;
68353;SDS011;55274;43.060;25.618;2022-11-20T07:10:23;34.97;;;19.05;;
68353;SDS011;55274;43.060;25.618;2022-11-20T07:12:49;64.40;;;34.50;;
68353;SDS011;55274;43.060;25.618;2022-11-20T07:15:18;37.28;;;19.83;;
68353;SDS011;55274;43.060;25.618;2022-11-20T07:17:44;69.43;;;36.05;;
68353;SDS011;55274;43.060;25.618;2022-11-20T07:20:11;50.53;;;25.77;;
68353;SDS011;55274;43.060;25.618;2022-11-20T07:22:37;32.20;;;16.98;;
68353;SDS011;55274;43.060;25.618;2022-11-20T07:25:04;24.92;;;13.55;;
68353;SDS011;55274;43.060;25.618;2022-11-20T07:27:30;28.10;;;13.35;;
68353;SDS011;55274;43.060;25.618;2022-11-20T07:29:56;27.23;;;13.82;;
68353;SDS011;55274;43.060;25.618;2022-11-20T07:32:22;26.67;;;12.40;;
68353;SDS011;55274;43.060;25.618;2022-11-20T07:34:48;24.00;;;11.48;;
68353;SDS011;55274;43.060;25.618;2022-11-20T07:37:14;21.40;;;11.23;;
68353;SDS011;55274;43.060;25.618;2022-11-20T07:39:40;38.38;;;18.23;;
68353;SDS011;55274;43.060;25.618;2022-11-20T07:42:07;23.92;;;11.55;;
68353;SDS011;55274;43.060;25.618;2022-11-20T07:44:33;24.02;;;10.65;;
68353;SDS011;55274;43.060;25.618;2022-11-20T07:46:59;48.35;;;19.80;;
68353;SDS011;55274;43.060;25.618;2022-11-20T07:49:25;39.97;;;16.75;;
68353;SDS011;55274;43.060;25.618;2022-11-20T07:51:51;29.13;;;13.23;;
68353;SDS011;55274;43.060;25.618;2022-11-20T07:54:19;22.52;;;10.50;;
68353;SDS011;55274;43.060;25.618;2022-11-20T07:56:46;23.50;;;11.02;;
68353;SDS011;55274;43.060;25.618;2022-11-20T07:59:12;36.38;;;13.25;;
68353;SDS011;55274;43.060;25.618;2022-11-20T08:01:38;35.55;;;15.27;;
68353;SDS011;55274;43.060;25.618;2022-11-20T08:04:04;36.80;;;14.55;;
68353;SDS011;55274;43.060;25.618;2022-11-20T08:06:30;25.00;;;11.82;;
68353;SDS011;55274;43.060;25.618;2022-11-20T08:08:57;33.75;;;12.30;;
68353;SDS011;55274;43.060;25.618;2022-11-20T08:11:22;26.50;;;12.43;;
68353;SDS011;55274;43.060;25.618;2022-11-20T08:14:07;32.63;;;16.25;;
68353;SDS011;55274;43.060;25.618;2022-11-20T08:16:39;40.55;;;19.38;;
68353;SDS011;55274;43.060;25.618;2022-11-20T08:19:06;26.80;;;12.50;;
68353;SDS011;55274;43.060;25.618;2022-11-20T08:21:32;23.73;;;10.75;;
68353;SDS011;55274;43.060;25.618;2022-11-20T08:23:58;31.20;;;12.85;;
68353;SDS011;55274;43.060;25.618;2022-11-20T08:26:24;25.63;;;11.55;;
68353;SDS011;55274;43.060;25.618;2022-11-20T08:28:54;22.58;;;10.32;;
68353;SDS011;55274;43.060;25.618;2022-11-20T08:31:21;19.73;;;9.02;;
68353;SDS011;55274;43.060;25.618;2022-11-20T08:33:48;16.73;;;8.85;;
68353;SDS011;55274;43.060;25.618;2022-11-20T08:36:14;19.98;;;10.13;;
68353;SDS011;55274;43.060;25.618;2022-11-20T08:38:40;29.40;;;10.20;;
68353;SDS011;55274;43.060;25.618;2022-11-20T08:41:06;19.70;;;10.02;;
68353;SDS011;55274;43.060;25.618;2022-11-20T08:43:51;19.95;;;9.30;;
68353;SDS011;55274;43.060;25.618;2022-11-20T08:46:28;22.30;;;10.00;;
68353;SDS011;55274;43.060;25.618;2022-11-20T08:48:58;24.77;;;9.27;;
68353;SDS011;55274;43.060;25.618;2022-11-20T08:51:24;22.75;;;10.55;;
68353;SDS011;55274;43.060;25.618;2022-11-20T08:53:50;23.33;;;10.57;;
68353;SDS011;55274;43.060;25.618;2022-11-20T08:56:16;22.25;;;10.50;;
68353;SDS011;55274;43.060;25.618;2022-11-20T08:58:42;22.50;;;10.43;;
68353;SDS011;55274;43.060;25.618;2022-11-20T09:01:09;19.35;;;10.00;;
68353;SDS011;55274;43.060;25.618;2022-11-20T09:03:35;21.80;;;10.82;;
68353;SDS011;55274;43.060;25.618;2022-11-20T09:06:01;20.25;;;10.10;;
68353;SDS011;55274;43.060;25.618;2022-11-20T09:08:32;21.67;;;10.63;;
68353;SDS011;55274;43.060;25.618;2022-11-20T09:10:59;23.45;;;9.60;;
68353;SDS011;55274;43.060;25.618;2022-11-20T09:13:26;19.52;;;9.82;;
68353;SDS011;55274;43.060;25.618;2022-11-20T09:15:53;23.80;;;11.20;;
68353;SDS011;55274;43.060;25.618;2022-11-20T09:18:20;23.52;;;10.70;;
68353;SDS011;55274;43.060;25.618;2022-11-20T09:20:48;21.88;;;10.27;;
68353;SDS011;55274;43.060;25.618;2022-11-20T09:23:14;22.63;;;10.18;;
68353;SDS011;55274;43.060;25.618;2022-11-20T09:25:40;28.10;;;12.18;;
68353;SDS011;55274;43.060;25.618;2022-11-20T09:28:06;25.08;;;10.82;;
68353;SDS011;55274;43.060;25.618;2022-11-20T09:30:32;22.60;;;11.10;;
68353;SDS011;55274;43.060;25.618;2022-11-20T09:32:58;22.30;;;10.32;;
68353;SDS011;55274;43.060;25.618;2022-11-20T09:35:24;20.65;;;10.00;;
68353;SDS011;55274;43.060;25.618;2022-11-20T09:37:49;20.52;;;11.00;;
68353;SDS011;55274;43.060;25.618;2022-11-20T09:40:23;28.10;;;10.10;;
68353;SDS011;55274;43.060;25.618;2022-11-20T09:42:56;23.90;;;10.88;;
68353;SDS011;55274;43.060;25.618;2022-11-20T09:45:44;21.00;;;10.45;;
68353;SDS011;55274;43.060;25.618;2022-11-20T09:51:18;26.92;;;10.93;;
68353;SDS011;55274;43.060;25.618;2022-11-20T09:56:45;21.77;;;10.75;;
68353;SDS011;55274;43.060;25.618;2022-11-20T09:59:23;28.50;;;11.63;;
68353;SDS011;55274;43.060;25.618;2022-11-20T10:01:55;21.38;;;11.00;;
68353;SDS011;55274;43.060;25.618;2022-11-20T10:04:22;24.35;;;11.43;;
68353;SDS011;55274;43.060;25.618;2022-11-20T10:25:37;22.80;;;10.57;;
68353;SDS011;55274;43.060;25.618;2022-11-20T10:30:35;20.40;;;10.40;;
68353;SDS011;55274;43.060;25.618;2022-11-20T10:33:08;20.08;;;10.55;;
68353;SDS011;55274;43.060;25.618;2022-11-20T10:35:49;26.35;;;12.52;;
68353;SDS011;55274;43.060;25.618;2022-11-20T10:38:39;23.67;;;11.07;;
68353;SDS011;55274;43.060;25.618;2022-11-20T10:41:22;25.20;;;12.82;;
68353;SDS011;55274;43.060;25.618;2022-11-20T10:46:24;23.00;;;11.85;;
68353;SDS011;55274;43.060;25.618;2022-11-20T10:48:53;22.50;;;11.25;;
68353;SDS011;55274;43.060;25.618;2022-11-20T10:51:30;25.65;;;12.23;;
68353;SDS011;55274;43.060;25.618;2022-11-20T10:56:46;22.95;;;11.30;;
68353;SDS011;55274;43.060;25.618;2022-11-20T10:59:25;24.73;;;10.80;;
68353;SDS011;55274;43.060;25.618;2022-11-20T11:02:22;26.02;;;11.35;;
68353;SDS011;55274;43.060;25.618;2022-11-20T11:04:50;25.25;;;12.20;;
68353;SDS011;55274;43.060;25.618;2022-11-20T11:09:57;21.45;;;10.65;;
68353;SDS011;55274;43.060;25.618;2022-11-20T11:12:26;21.95;;;11.27;;
68353;SDS011;55274;43.060;25.618;2022-11-20T11:14:54;24.83;;;11.52;;
68353;SDS011;55274;43.060;25.618;2022-11-20T11:17:26;24.67;;;11.07;;
68353;SDS011;55274;43.060;25.618;2022-11-20T11:20:13;26.35;;;11.95;;
68353;SDS011;55274;43.060;25.618;2022-11-20T11:22:46;28.30;;;12.02;;
68353;SDS011;55274;43.060;25.618;2022-11-20T11:25:26;20.92;;;10.70;;
68353;SDS011;55274;43.060;25.618;2022-11-20T11:27:52;24.08;;;11.48;;
68353;SDS011;55274;43.060;25.618;2022-11-20T11:30:21;24.27;;;11.77;;
68353;SDS011;55274;43.060;25.618;2022-11-20T11:32:48;24.88;;;11.48;;
68353;SDS011;55274;43.060;25.618;2022-11-20T11:35:22;22.25;;;11.30;;
68353;SDS011;55274;43.060;25.618;2022-11-20T11:37:54;24.50;;;10.20;;
68353;SDS011;55274;43.060;25.618;2022-11-20T11:40:28;22.88;;;11.05;;
68353;SDS011;55274;43.060;25.618;2022-11-20T11:42:57;23.63;;;10.90;;
68353;SDS011;55274;43.060;25.618;2022-11-20T11:45:29;22.83;;;11.23;;
68353;SDS011;55274;43.060;25.618;2022-11-20T11:47:58;22.20;;;11.38;;
68353;SDS011;55274;43.060;25.618;2022-11-20T11:50:28;25.33;;;12.43;;
68353;SDS011;55274;43.060;25.618;2022-11-20T12:04:03;23.45;;;11.43;;
68353;SDS011;55274;43.060;25.618;2022-11-20T12:06:30;27.60;;;12.55;;
68353;SDS011;55274;43.060;25.618;2022-11-20T12:09:02;21.83;;;10.88;;
68353;SDS011;55274;43.060;25.618;2022-11-20T12:14:14;21.60;;;11.27;;
68353;SDS011;55274;43.060;25.618;2022-11-20T12:16:42;30.92;;;12.48;;
68353;SDS011;55274;43.060;25.618;2022-11-20T12:19:09;28.10;;;11.52;;
68353;SDS011;55274;43.060;25.618;2022-11-20T12:21:47;19.15;;;9.57;;
68353;SDS011;55274;43.060;25.618;2022-11-20T12:30:08;20.27;;;10.80;;
68353;SDS011;55274;43.060;25.618;2022-11-20T12:32:39;24.13;;;11.05;;
68353;SDS011;55274;43.060;25.618;2022-11-20T12:38:04;20.65;;;10.35;;
68353;SDS011;55274;43.060;25.618;2022-11-20T12:50:09;23.67;;;11.75;;
68353;SDS011;55274;43.060;25.618;2022-11-20T12:52:57;23.65;;;11.60;;
68353;SDS011;55274;43.060;25.618;2022-11-20T12:55:49;24.67;;;12.63;;
68353;SDS011;55274;43.060;25.618;2022-11-20T12:58:44;29.35;;;13.13;;
68353;SDS011;55274;43.060;25.618;2022-11-20T13:06:50;25.55;;;12.30;;
68353;SDS011;55274;43.060;25.618;2022-11-20T13:09:17;26.63;;;12.25;;
68353;SDS011;55274;43.060;25.618;2022-11-20T13:14:35;27.45;;;12.60;;
68353;SDS011;55274;43.060;25.618;2022-11-20T13:19:57;25.23;;;13.23;;
68353;SDS011;55274;43.060;25.618;2022-11-20T13:22:31;28.27;;;13.23;;
68353;SDS011;55274;43.060;25.618;2022-11-20T13:25:09;26.70;;;12.40;;
68353;SDS011;55274;43.060;25.618;2022-11-20T13:27:47;26.42;;;12.88;;
68353;SDS011;55274;43.060;25.618;2022-11-20T13:30:15;26.25;;;12.93;;
68353;SDS011;55274;43.060;25.618;2022-11-20T13:33:22;28.65;;;14.05;;
68353;SDS011;55274;43.060;25.618;2022-11-20T13:35:55;28.58;;;13.30;;
68353;SDS011;55274;43.060;25.618;2022-11-20T13:38:26;25.67;;;13.05;;
68353;SDS011;55274;43.060;25.618;2022-11-20T13:40:54;24.38;;;12.05;;
68353;SDS011;55274;43.060;25.618;2022-11-20T13:43:27;26.73;;;13.50;;
68353;SDS011;55274;43.060;25.618;2022-11-20T13:46:01;28.20;;;12.93;;
68353;SDS011;55274;43.060;25.618;2022-11-20T13:48:30;25.33;;;13.48;;
68353;SDS011;55274;43.060;25.618;2022-11-20T13:51:06;27.55;;;12.48;;
68353;SDS011;55274;43.060;25.618;2022-11-20T13:59:58;26.33;;;12.48;;
68353;SDS011;55274;43.060;25.618;2022-11-20T14:01:58;26.33;;;12.45;;
68353;SDS011;55274;43.060;25.618;2022-11-20T14:04:29;28.73;;;13.98;;
68353;SDS011;55274;43.060;25.618;2022-11-20T14:06:58;31.38;;;14.20;;
68353;SDS011;55274;43.060;25.618;2022-11-20T14:09:25;31.58;;;14.98;;
68353;SDS011;55274;43.060;25.618;2022-11-20T14:11:56;31.25;;;14.32;;
68353;SDS011;55274;43.060;25.618;2022-11-20T14:14:23;27.25;;;13.93;;
68353;SDS011;55274;43.060;25.618;2022-11-20T14:16:51;28.88;;;13.65;;
68353;SDS011;55274;43.060;25.618;2022-11-20T14:21:47;30.48;;;13.77;;
68353;SDS011;55274;43.060;25.618;2022-11-20T14:24:31;32.15;;;14.85;;
68353;SDS011;55274;43.060;25.618;2022-11-20T14:26:57;28.10;;;13.88;;
68353;SDS011;55274;43.060;25.618;2022-11-20T14:29:27;30.45;;;15.02;;
68353;SDS011;55274;43.060;25.618;2022-11-20T14:31:55;34.25;;;16.85;;
68353;SDS011;55274;43.060;25.618;2022-11-20T14:34:23;32.40;;;15.93;;
68353;SDS011;55274;43.060;25.618;2022-11-20T14:36:52;32.83;;;17.80;;
68353;SDS011;55274;43.060;25.618;2022-11-20T14:39:22;31.00;;;16.45;;
68353;SDS011;55274;43.060;25.618;2022-11-20T14:42:00;30.15;;;14.73;;
68353;SDS011;55274;43.060;25.618;2022-11-20T14:44:31;27.95;;;13.02;;
68353;SDS011;55274;43.060;25.618;2022-11-20T14:47:02;37.15;;;19.10;;
68353;SDS011;55274;43.060;25.618;2022-11-20T14:49:29;38.80;;;17.48;;
68353;SDS011;55274;43.060;25.618;2022-11-20T14:52:10;28.35;;;14.68;;
68353;SDS011;55274;43.060;25.618;2022-11-20T14:54:48;26.73;;;13.35;;
68353;SDS011;55274;43.060;25.618;2022-11-20T15:02:38;27.80;;;13.02;;
68353;SDS011;55274;43.060;25.618;2022-11-20T15:05:08;17.77;;;7.82;;
68353;SDS011;55274;43.060;25.618;2022-11-20T15:07:35;46.42;;;19.95;;
68353;SDS011;55274;43.060;25.618;2022-11-20T15:10:06;17.63;;;8.93;;
68353;SDS011;55274;43.060;25.618;2022-11-20T15:12:34;15.88;;;7.68;;
68353;SDS011;55274;43.060;25.618;2022-11-20T15:15:03;14.88;;;7.30;;
68353;SDS011;55274;43.060;25.618;2022-11-20T15:17:31;17.95;;;7.65;;
68353;SDS011;55274;43.060;25.618;2022-11-20T15:20:00;17.63;;;9.65;;
68353;SDS011;55274;43.060;25.618;2022-11-20T15:22:27;26.20;;;11.90;;
68353;SDS011;55274;43.060;25.618;2022-11-20T15:24:52;22.65;;;9.88;;
68353;SDS011;55274;43.060;25.618;2022-11-20T15:27:18;16.88;;;8.80;;
68353;SDS011;55274;43.060;25.618;2022-11-20T15:29:44;15.73;;;7.75;;
68353;SDS011;55274;43.060;25.618;2022-11-20T15:32:10;17.38;;;8.57;;
68353;SDS011;55274;43.060;25.618;2022-11-20T15:34:35;17.58;;;8.63;;
68353;SDS011;55274;43.060;25.618;2022-11-20T15:37:01;19.50;;;8.70;;
68353;SDS011;55274;43.060;25.618;2022-11-20T15:39:27;27.30;;;10.00;;
68353;SDS011;55274;43.060;25.618;2022-11-20T15:41:53;21.73;;;10.80;;
68353;SDS011;55274;43.060;25.618;2022-11-20T15:44:19;19.73;;;10.40;;
68353;SDS011;55274;43.060;25.618;2022-11-20T15:46:44;23.30;;;11.95;;
68353;SDS011;55274;43.060;25.618;2022-11-20T15:49:15;18.23;;;10.27;;
68353;SDS011;55274;43.060;25.618;2022-11-20T15:51:44;18.10;;;9.95;;
68353;SDS011;55274;43.060;25.618;2022-11-20T15:54:14;19.48;;;9.82;;
68353;SDS011;55274;43.060;25.618;2022-11-20T15:56:48;21.58;;;11.23;;
68353;SDS011;55274;43.060;25.618;2022-11-20T15:59:17;19.45;;;10.52;;
68353;SDS011;55274;43.060;25.618;2022-11-20T16:01:43;18.15;;;9.90;;
68353;SDS011;55274;43.060;25.618;2022-11-20T16:04:15;20.90;;;10.50;;
68353;SDS011;55274;43.060;25.618;2022-11-20T16:06:43;21.67;;;11.18;;
68353;SDS011;55274;43.060;25.618;2022-11-20T16:09:09;19.48;;;9.20;;
68353;SDS011;55274;43.060;25.618;2022-11-20T16:11:35;15.73;;;7.85;;
68353;SDS011;55274;43.060;25.618;2022-11-20T16:14:02;14.43;;;7.88;;
68353;SDS011;55274;43.060;25.618;2022-11-20T16:16:47;14.73;;;8.20;;
68353;SDS011;55274;43.060;25.618;2022-11-20T16:19:13;15.88;;;9.05;;